sensor_id;sensor_type;location;lat;lon;timestamp;P1;durP1;ratioP1;P2;durP2;ratioP2
71566;SDS011;59403;47.456;19.120;2022-09-12T00:01:15;4.28;;;3.40;;
71566;SDS011;59403;47.456;19.120;2022-09-12T00:03:44;3.40;;;2.87;;
71566;SDS011;59403;47.456;19.120;2022-09-12T00:06:14;3.42;;;2.90;;
71566;SDS011;59403;47.456;19.120;2022-09-12T00:08:43;3.87;;;3.03;;
71566;SDS011;59403;47.456;19.120;2022-09-12T00:11:10;3.47;;;3.08;;
71566;SDS011;59403;47.456;19.120;2022-09-12T00:13:38;3.03;;;2.72;;
71566;SDS011;59403;47.456;19.120;2022-09-12T00:16:06;3.83;;;2.55;;
71566;SDS011;59403;47.456;19.120;2022-09-12T00:18:40;4.78;;;3.05;;
71566;SDS011;59403;47.456;19.120;2022-09-12T00:21:07;4.90;;;2.97;;
71566;SDS011;59403;47.456;19.120;2022-09-12T00:23:34;3.50;;;3.17;;
71566;SDS011;59403;47.456;19.120;2022-09-12T00:26:02;3.95;;;2.72;;
71566;SDS011;59403;47.456;19.120;2022-09-12T00:28:30;3.70;;;3.17;;
71566;SDS011;59403;47.456;19.120;2022-09-12T00:30:59;3.83;;;2.85;;
71566;SDS011;59403;47.456;19.120;2022-09-12T00:33:29;4.05;;;2.80;;
71566;SDS011;59403;47.456;19.120;2022-09-12T00:35:57;5.12;;;3.03;;
71566;SDS011;59403;47.456;19.120;2022-09-12T00:38:25;3.70;;;3.30;;
71566;SDS011;59403;47.456;19.120;2022-09-12T00:40:51;4.00;;;3.08;;
71566;SDS011;59403;47.456;19.120;2022-09-12T00:43:32;4.00;;;3.00;;
71566;SDS011;59403;47.456;19.120;2022-09-12T00:46:03;4.50;;;3.00;;
71566;SDS011;59403;47.456;19.120;2022-09-12T00:48:38;3.80;;;2.80;;
71566;SDS011;59403;47.456;19.120;2022-09-12T00:51:10;3.60;;;2.97;;
71566;SDS011;59403;47.456;19.120;2022-09-12T00:53:38;3.67;;;2.65;;
71566;SDS011;59403;47.456;19.120;2022-09-12T00:56:07;6.65;;;3.25;;
71566;SDS011;59403;47.456;19.120;2022-09-12T00:58:39;3.17;;;2.70;;
71566;SDS011;59403;47.456;19.120;2022-09-12T01:04:45;5.37;;;3.25;;
71566;SDS011;59403;47.456;19.120;2022-09-12T01:07:19;4.15;;;3.35;;
71566;SDS011;59403;47.456;19.120;2022-09-12T01:09:47;3.47;;;3.17;;
71566;SDS011;59403;47.456;19.120;2022-09-12T01:12:15;3.90;;;3.10;;
71566;SDS011;59403;47.456;19.120;2022-09-12T01:14:42;5.00;;;3.40;;
71566;SDS011;59403;47.456;19.120;2022-09-12T01:17:10;4.10;;;3.53;;
71566;SDS011;59403;47.456;19.120;2022-09-12T01:19:52;4.85;;;3.40;;
71566;SDS011;59403;47.456;19.120;2022-09-12T01:22:58;4.68;;;3.37;;
71566;SDS011;59403;47.456;19.120;2022-09-12T01:25:49;4.68;;;3.08;;
71566;SDS011;59403;47.456;19.120;2022-09-12T01:28:42;3.92;;;3.12;;
71566;SDS011;59403;47.456;19.120;2022-09-12T01:31:30;6.05;;;3.12;;
71566;SDS011;59403;47.456;19.120;2022-09-12T01:34:06;4.60;;;3.70;;
71566;SDS011;59403;47.456;19.120;2022-09-12T01:36:40;4.47;;;3.30;;
71566;SDS011;59403;47.456;19.120;2022-09-12T01:39:19;4.25;;;3.37;;
71566;SDS011;59403;47.456;19.120;2022-09-12T01:41:53;4.12;;;3.33;;
71566;SDS011;59403;47.456;19.120;2022-09-12T01:44:29;4.18;;;3.62;;
71566;SDS011;59403;47.456;19.120;2022-09-12T01:47:04;4.47;;;3.25;;
71566;SDS011;59403;47.456;19.120;2022-09-12T01:49:35;4.20;;;3.35;;
71566;SDS011;59403;47.456;19.120;2022-09-12T01:52:09;3.78;;;2.97;;
71566;SDS011;59403;47.456;19.120;2022-09-12T01:54:43;6.10;;;3.53;;
71566;SDS011;59403;47.456;19.120;2022-09-12T01:57:15;3.80;;;3.30;;
71566;SDS011;59403;47.456;19.120;2022-09-12T01:59:46;3.80;;;3.22;;
71566;SDS011;59403;47.456;19.120;2022-09-12T02:02:18;6.03;;;3.42;;
71566;SDS011;59403;47.456;19.120;2022-09-12T02:04:51;4.12;;;3.20;;
71566;SDS011;59403;47.456;19.120;2022-09-12T02:07:24;5.12;;;3.12;;
71566;SDS011;59403;47.456;19.120;2022-09-12T02:09:58;4.22;;;3.17;;
71566;SDS011;59403;47.456;19.120;2022-09-12T02:12:33;3.53;;;3.05;;
71566;SDS011;59403;47.456;19.120;2022-09-12T02:15:06;6.45;;;4.00;;
71566;SDS011;59403;47.456;19.120;2022-09-12T02:17:36;4.53;;;3.33;;
71566;SDS011;59403;47.456;19.120;2022-09-12T02:20:09;4.57;;;3.22;;
71566;SDS011;59403;47.456;19.120;2022-09-12T02:22:40;3.90;;;3.40;;
71566;SDS011;59403;47.456;19.120;2022-09-12T02:25:10;4.50;;;3.45;;
71566;SDS011;59403;47.456;19.120;2022-09-12T02:27:42;3.62;;;3.22;;
71566;SDS011;59403;47.456;19.120;2022-09-12T02:30:12;3.65;;;3.00;;
71566;SDS011;59403;47.456;19.120;2022-09-12T02:32:44;4.07;;;3.37;;
71566;SDS011;59403;47.456;19.120;2022-09-12T02:35:24;3.65;;;2.83;;
71566;SDS011;59403;47.456;19.120;2022-09-12T02:38:01;3.95;;;3.37;;
71566;SDS011;59403;47.456;19.120;2022-09-12T02:40:32;4.15;;;2.90;;
71566;SDS011;59403;47.456;19.120;2022-09-12T02:43:00;4.03;;;3.08;;
71566;SDS011;59403;47.456;19.120;2022-09-12T02:45:28;4.47;;;3.22;;
71566;SDS011;59403;47.456;19.120;2022-09-12T02:47:59;4.75;;;3.60;;
71566;SDS011;59403;47.456;19.120;2022-09-12T02:50:31;5.47;;;3.53;;
71566;SDS011;59403;47.456;19.120;2022-09-12T02:52:58;5.95;;;3.90;;
71566;SDS011;59403;47.456;19.120;2022-09-12T02:55:29;5.30;;;4.22;;
71566;SDS011;59403;47.456;19.120;2022-09-12T02:57:57;5.68;;;4.43;;
71566;SDS011;59403;47.456;19.120;2022-09-12T03:00:25;8.50;;;5.53;;
71566;SDS011;59403;47.456;19.120;2022-09-12T03:03:01;7.07;;;4.97;;
71566;SDS011;59403;47.456;19.120;2022-09-12T03:05:39;6.97;;;4.55;;
71566;SDS011;59403;47.456;19.120;2022-09-12T03:08:19;7.47;;;5.20;;
71566;SDS011;59403;47.456;19.120;2022-09-12T03:11:04;6.95;;;5.10;;
71566;SDS011;59403;47.456;19.120;2022-09-12T03:13:43;6.35;;;4.57;;
71566;SDS011;59403;47.456;19.120;2022-09-12T03:16:20;8.23;;;5.35;;
71566;SDS011;59403;47.456;19.120;2022-09-12T03:18:57;8.13;;;5.12;;
71566;SDS011;59403;47.456;19.120;2022-09-12T03:21:30;7.70;;;5.55;;
71566;SDS011;59403;47.456;19.120;2022-09-12T03:24:08;7.50;;;5.55;;
71566;SDS011;59403;47.456;19.120;2022-09-12T03:26:39;7.70;;;5.18;;
71566;SDS011;59403;47.456;19.120;2022-09-12T03:29:14;7.57;;;5.05;;
71566;SDS011;59403;47.456;19.120;2022-09-12T03:31:47;6.72;;;5.45;;
71566;SDS011;59403;47.456;19.120;2022-09-12T03:34:16;7.50;;;5.25;;
71566;SDS011;59403;47.456;19.120;2022-09-12T03:36:44;8.57;;;4.95;;
71566;SDS011;59403;47.456;19.120;2022-09-12T03:39:11;6.90;;;5.30;;
71566;SDS011;59403;47.456;19.120;2022-09-12T03:41:38;7.50;;;5.20;;
71566;SDS011;59403;47.456;19.120;2022-09-12T03:44:05;5.50;;;4.53;;
71566;SDS011;59403;47.456;19.120;2022-09-12T03:46:32;6.18;;;5.22;;
71566;SDS011;59403;47.456;19.120;2022-09-12T03:48:59;6.47;;;4.62;;
71566;SDS011;59403;47.456;19.120;2022-09-12T03:51:27;5.95;;;4.87;;
71566;SDS011;59403;47.456;19.120;2022-09-12T03:53:55;7.50;;;4.87;;
71566;SDS011;59403;47.456;19.120;2022-09-12T03:56:21;6.87;;;4.78;;
71566;SDS011;59403;47.456;19.120;2022-09-12T03:58:48;6.12;;;4.78;;
71566;SDS011;59403;47.456;19.120;2022-09-12T04:01:16;6.25;;;4.40;;
71566;SDS011;59403;47.456;19.120;2022-09-12T04:03:45;8.90;;;4.45;;
71566;SDS011;59403;47.456;19.120;2022-09-12T04:06:14;5.93;;;4.68;;
71566;SDS011;59403;47.456;19.120;2022-09-12T04:08:48;5.93;;;4.07;;
71566;SDS011;59403;47.456;19.120;2022-09-12T04:11:17;7.10;;;4.47;;
71566;SDS011;59403;47.456;19.120;2022-09-12T04:13:46;7.07;;;4.07;;
71566;SDS011;59403;47.456;19.120;2022-09-12T04:16:13;8.50;;;4.68;;
71566;SDS011;59403;47.456;19.120;2022-09-12T04:18:41;5.82;;;4.20;;
71566;SDS011;59403;47.456;19.120;2022-09-12T04:21:09;6.15;;;4.57;;
71566;SDS011;59403;47.456;19.120;2022-09-12T04:23:37;5.03;;;3.70;;
71566;SDS011;59403;47.456;19.120;2022-09-12T04:26:06;6.97;;;4.60;;
71566;SDS011;59403;47.456;19.120;2022-09-12T04:28:33;6.62;;;4.20;;
71566;SDS011;59403;47.456;19.120;2022-09-12T04:31:02;6.45;;;4.62;;
71566;SDS011;59403;47.456;19.120;2022-09-12T04:33:31;5.03;;;4.22;;
71566;SDS011;59403;47.456;19.120;2022-09-12T04:36:02;6.22;;;4.00;;
71566;SDS011;59403;47.456;19.120;2022-09-12T04:38:29;5.25;;;3.95;;
71566;SDS011;59403;47.456;19.120;2022-09-12T04:40:56;5.72;;;3.95;;
71566;SDS011;59403;47.456;19.120;2022-09-12T04:43:25;6.50;;;4.10;;
71566;SDS011;59403;47.456;19.120;2022-09-12T04:45:51;7.30;;;4.20;;
71566;SDS011;59403;47.456;19.120;2022-09-12T04:48:19;4.85;;;4.05;;
71566;SDS011;59403;47.456;19.120;2022-09-12T04:50:45;6.07;;;3.92;;
71566;SDS011;59403;47.456;19.120;2022-09-12T04:53:12;5.60;;;3.80;;
71566;SDS011;59403;47.456;19.120;2022-09-12T04:55:39;6.18;;;3.80;;
71566;SDS011;59403;47.456;19.120;2022-09-12T04:58:06;6.43;;;3.90;;
71566;SDS011;59403;47.456;19.120;2022-09-12T05:00:34;6.28;;;4.03;;
71566;SDS011;59403;47.456;19.120;2022-09-12T05:03:01;6.85;;;4.95;;
71566;SDS011;59403;47.456;19.120;2022-09-12T05:05:28;6.68;;;3.87;;
71566;SDS011;59403;47.456;19.120;2022-09-12T05:07:55;4.97;;;3.42;;
71566;SDS011;59403;47.456;19.120;2022-09-12T05:10:22;6.03;;;4.00;;
71566;SDS011;59403;47.456;19.120;2022-09-12T05:12:48;6.82;;;3.92;;
71566;SDS011;59403;47.456;19.120;2022-09-12T05:15:15;5.35;;;3.60;;
71566;SDS011;59403;47.456;19.120;2022-09-12T05:17:44;5.62;;;3.80;;
71566;SDS011;59403;47.456;19.120;2022-09-12T05:20:10;7.87;;;4.20;;
71566;SDS011;59403;47.456;19.120;2022-09-12T05:22:37;4.80;;;3.87;;
71566;SDS011;59403;47.456;19.120;2022-09-12T05:25:05;6.47;;;3.65;;
71566;SDS011;59403;47.456;19.120;2022-09-12T05:27:33;4.82;;;3.50;;
71566;SDS011;59403;47.456;19.120;2022-09-12T05:30:00;5.62;;;3.45;;
71566;SDS011;59403;47.456;19.120;2022-09-12T05:32:29;6.93;;;3.97;;
71566;SDS011;59403;47.456;19.120;2022-09-12T05:34:58;5.50;;;3.60;;
71566;SDS011;59403;47.456;19.120;2022-09-12T05:37:25;6.75;;;3.75;;
71566;SDS011;59403;47.456;19.120;2022-09-12T05:39:53;5.57;;;3.37;;
71566;SDS011;59403;47.456;19.120;2022-09-12T05:42:19;5.55;;;3.35;;
71566;SDS011;59403;47.456;19.120;2022-09-12T05:44:47;7.97;;;3.70;;
71566;SDS011;59403;47.456;19.120;2022-09-12T05:47:14;4.87;;;3.40;;
71566;SDS011;59403;47.456;19.120;2022-09-12T05:49:43;6.07;;;3.37;;
71566;SDS011;59403;47.456;19.120;2022-09-12T05:52:13;6.47;;;4.05;;
71566;SDS011;59403;47.456;19.120;2022-09-12T05:54:40;5.55;;;3.35;;
71566;SDS011;59403;47.456;19.120;2022-09-12T05:57:07;4.90;;;3.47;;
71566;SDS011;59403;47.456;19.120;2022-09-12T05:59:34;7.40;;;3.90;;
71566;SDS011;59403;47.456;19.120;2022-09-12T06:02:01;4.65;;;3.25;;
71566;SDS011;59403;47.456;19.120;2022-09-12T06:04:28;5.80;;;3.97;;
71566;SDS011;59403;47.456;19.120;2022-09-12T06:06:54;5.30;;;3.70;;
71566;SDS011;59403;47.456;19.120;2022-09-12T06:09:23;5.18;;;3.42;;
71566;SDS011;59403;47.456;19.120;2022-09-12T06:11:50;7.20;;;3.80;;
71566;SDS011;59403;47.456;19.120;2022-09-12T06:14:17;5.43;;;4.15;;
71566;SDS011;59403;47.456;19.120;2022-09-12T06:16:44;7.32;;;3.70;;
71566;SDS011;59403;47.456;19.120;2022-09-12T06:19:12;6.03;;;4.07;;
71566;SDS011;59403;47.456;19.120;2022-09-12T06:21:41;5.72;;;3.60;;
71566;SDS011;59403;47.456;19.120;2022-09-12T06:24:08;4.00;;;3.30;;
71566;SDS011;59403;47.456;19.120;2022-09-12T06:26:36;5.95;;;4.05;;
71566;SDS011;59403;47.456;19.120;2022-09-12T06:29:03;6.30;;;4.05;;
71566;SDS011;59403;47.456;19.120;2022-09-12T06:31:31;5.68;;;3.87;;
71566;SDS011;59403;47.456;19.120;2022-09-12T06:34:04;5.00;;;3.67;;
71566;SDS011;59403;47.456;19.120;2022-09-12T06:36:32;5.50;;;3.83;;
71566;SDS011;59403;47.456;19.120;2022-09-12T06:39:03;5.65;;;4.18;;
71566;SDS011;59403;47.456;19.120;2022-09-12T06:41:31;6.55;;;3.75;;
71566;SDS011;59403;47.456;19.120;2022-09-12T06:44:00;6.05;;;4.18;;
71566;SDS011;59403;47.456;19.120;2022-09-12T06:46:27;7.30;;;4.28;;
71566;SDS011;59403;47.456;19.120;2022-09-12T06:48:55;5.75;;;4.05;;
71566;SDS011;59403;47.456;19.120;2022-09-12T06:51:23;5.68;;;4.32;;
71566;SDS011;59403;47.456;19.120;2022-09-12T06:53:53;5.72;;;3.92;;
71566;SDS011;59403;47.456;19.120;2022-09-12T06:56:21;5.45;;;4.12;;
71566;SDS011;59403;47.456;19.120;2022-09-12T06:58:49;5.75;;;4.20;;
71566;SDS011;59403;47.456;19.120;2022-09-12T07:01:19;6.22;;;4.32;;
71566;SDS011;59403;47.456;19.120;2022-09-12T07:03:48;6.15;;;3.85;;
71566;SDS011;59403;47.456;19.120;2022-09-12T07:06:17;7.80;;;4.00;;
71566;SDS011;59403;47.456;19.120;2022-09-12T07:08:45;5.32;;;3.50;;
71566;SDS011;59403;47.456;19.120;2022-09-12T07:11:15;6.75;;;3.50;;
71566;SDS011;59403;47.456;19.120;2022-09-12T07:13:44;5.87;;;3.90;;
71566;SDS011;59403;47.456;19.120;2022-09-12T07:16:13;7.15;;;4.10;;
71566;SDS011;59403;47.456;19.120;2022-09-12T07:18:42;6.53;;;3.60;;
71566;SDS011;59403;47.456;19.120;2022-09-12T07:21:11;5.80;;;4.15;;
71566;SDS011;59403;47.456;19.120;2022-09-12T07:23:39;5.75;;;3.72;;
71566;SDS011;59403;47.456;19.120;2022-09-12T07:26:07;5.63;;;4.03;;
71566;SDS011;59403;47.456;19.120;2022-09-12T07:28:36;5.05;;;3.78;;
71566;SDS011;59403;47.456;19.120;2022-09-12T07:31:03;4.80;;;3.67;;
71566;SDS011;59403;47.456;19.120;2022-09-12T07:33:31;6.15;;;3.97;;
71566;SDS011;59403;47.456;19.120;2022-09-12T07:36:01;6.32;;;3.70;;
71566;SDS011;59403;47.456;19.120;2022-09-12T07:38:28;5.45;;;3.25;;
71566;SDS011;59403;47.456;19.120;2022-09-12T07:40:55;6.95;;;3.90;;
71566;SDS011;59403;47.456;19.120;2022-09-12T07:43:23;6.05;;;3.35;;
71566;SDS011;59403;47.456;19.120;2022-09-12T07:45:53;4.18;;;3.10;;
71566;SDS011;59403;47.456;19.120;2022-09-12T07:48:21;5.95;;;3.42;;
71566;SDS011;59403;47.456;19.120;2022-09-12T07:50:48;4.50;;;3.07;;
71566;SDS011;59403;47.456;19.120;2022-09-12T07:53:25;4.37;;;3.15;;
71566;SDS011;59403;47.456;19.120;2022-09-12T07:55:52;4.62;;;2.70;;
71566;SDS011;59403;47.456;19.120;2022-09-12T07:58:21;3.60;;;2.55;;
71566;SDS011;59403;47.456;19.120;2022-09-12T08:00:48;3.90;;;2.50;;
71566;SDS011;59403;47.456;19.120;2022-09-12T08:03:15;3.87;;;3.00;;
71566;SDS011;59403;47.456;19.120;2022-09-12T08:05:43;4.05;;;3.05;;
71566;SDS011;59403;47.456;19.120;2022-09-12T08:08:10;3.40;;;2.60;;
71566;SDS011;59403;47.456;19.120;2022-09-12T08:10:38;4.60;;;2.92;;
71566;SDS011;59403;47.456;19.120;2022-09-12T08:13:05;5.35;;;2.70;;
71566;SDS011;59403;47.456;19.120;2022-09-12T08:15:33;3.83;;;3.00;;
71566;SDS011;59403;47.456;19.120;2022-09-12T08:18:00;4.70;;;2.87;;
71566;SDS011;59403;47.456;19.120;2022-09-12T08:20:27;4.55;;;2.47;;
71566;SDS011;59403;47.456;19.120;2022-09-12T08:22:54;3.55;;;2.67;;
71566;SDS011;59403;47.456;19.120;2022-09-12T08:25:21;4.18;;;3.17;;
71566;SDS011;59403;47.456;19.120;2022-09-12T08:27:49;4.20;;;2.33;;
71566;SDS011;59403;47.456;19.120;2022-09-12T08:30:16;3.83;;;2.58;;
71566;SDS011;59403;47.456;19.120;2022-09-12T08:32:43;3.87;;;2.97;;
71566;SDS011;59403;47.456;19.120;2022-09-12T08:35:10;3.08;;;2.55;;
71566;SDS011;59403;47.456;19.120;2022-09-12T08:37:37;3.83;;;2.42;;
71566;SDS011;59403;47.456;19.120;2022-09-12T08:40:05;5.93;;;3.17;;
71566;SDS011;59403;47.456;19.120;2022-09-12T08:42:37;4.70;;;2.95;;
71566;SDS011;59403;47.456;19.120;2022-09-12T08:45:18;5.22;;;3.00;;
71566;SDS011;59403;47.456;19.120;2022-09-12T08:47:49;4.07;;;3.20;;
71566;SDS011;59403;47.456;19.120;2022-09-12T08:50:17;4.50;;;2.87;;
71566;SDS011;59403;47.456;19.120;2022-09-12T08:52:49;4.40;;;3.30;;
71566;SDS011;59403;47.456;19.120;2022-09-12T08:55:27;4.03;;;2.92;;
71566;SDS011;59403;47.456;19.120;2022-09-12T08:58:00;3.50;;;2.83;;
71566;SDS011;59403;47.456;19.120;2022-09-12T09:00:37;3.95;;;2.97;;
71566;SDS011;59403;47.456;19.120;2022-09-12T09:03:21;5.18;;;3.33;;
71566;SDS011;59403;47.456;19.120;2022-09-12T09:06:12;3.93;;;2.93;;
71566;SDS011;59403;47.456;19.120;2022-09-12T09:08:50;3.78;;;2.90;;
71566;SDS011;59403;47.456;19.120;2022-09-12T09:11:38;4.60;;;3.33;;
71566;SDS011;59403;47.456;19.120;2022-09-12T09:14:38;3.70;;;2.70;;
71566;SDS011;59403;47.456;19.120;2022-09-12T09:17:17;4.22;;;3.10;;
71566;SDS011;59403;47.456;19.120;2022-09-12T09:19:50;5.57;;;2.50;;
71566;SDS011;59403;47.456;19.120;2022-09-12T09:22:27;3.42;;;2.70;;
71566;SDS011;59403;47.456;19.120;2022-09-12T09:25:03;4.00;;;2.70;;
71566;SDS011;59403;47.456;19.120;2022-09-12T09:27:34;3.83;;;2.65;;
71566;SDS011;59403;47.456;19.120;2022-09-12T09:30:08;3.60;;;2.55;;
71566;SDS011;59403;47.456;19.120;2022-09-12T09:32:42;3.40;;;2.70;;
71566;SDS011;59403;47.456;19.120;2022-09-12T09:35:14;3.58;;;2.62;;
71566;SDS011;59403;47.456;19.120;2022-09-12T09:37:43;3.95;;;2.58;;
71566;SDS011;59403;47.456;19.120;2022-09-12T09:40:27;4.32;;;2.12;;
71566;SDS011;59403;47.456;19.120;2022-09-12T09:43:04;3.62;;;2.28;;
71566;SDS011;59403;47.456;19.120;2022-09-12T09:45:40;4.27;;;2.17;;
71566;SDS011;59403;47.456;19.120;2022-09-12T09:48:12;4.00;;;2.10;;
71566;SDS011;59403;47.456;19.120;2022-09-12T09:50:43;4.28;;;1.90;;
71566;SDS011;59403;47.456;19.120;2022-09-12T09:53:14;3.35;;;2.10;;
71566;SDS011;59403;47.456;19.120;2022-09-12T09:55:52;2.30;;;1.85;;
71566;SDS011;59403;47.456;19.120;2022-09-12T09:58:27;4.73;;;2.33;;
71566;SDS011;59403;47.456;19.120;2022-09-12T10:00:57;3.17;;;2.37;;
71566;SDS011;59403;47.456;19.120;2022-09-12T10:03:28;2.37;;;1.98;;
71566;SDS011;59403;47.456;19.120;2022-09-12T10:06:00;2.87;;;2.20;;
71566;SDS011;59403;47.456;19.120;2022-09-12T10:08:32;2.40;;;1.87;;
71566;SDS011;59403;47.456;19.120;2022-09-12T10:11:02;3.23;;;2.40;;
71566;SDS011;59403;47.456;19.120;2022-09-12T10:13:35;2.60;;;2.10;;
71566;SDS011;59403;47.456;19.120;2022-09-12T10:16:05;3.45;;;2.30;;
71566;SDS011;59403;47.456;19.120;2022-09-12T10:18:45;2.70;;;2.10;;
71566;SDS011;59403;47.456;19.120;2022-09-12T10:21:13;3.60;;;2.33;;
71566;SDS011;59403;47.456;19.120;2022-09-12T10:23:43;3.00;;;2.33;;
71566;SDS011;59403;47.456;19.120;2022-09-12T10:26:13;6.00;;;2.22;;
71566;SDS011;59403;47.456;19.120;2022-09-12T10:28:42;3.45;;;2.60;;
71566;SDS011;59403;47.456;19.120;2022-09-12T10:31:13;4.12;;;2.60;;
71566;SDS011;59403;47.456;19.120;2022-09-12T10:33:43;3.47;;;2.17;;
71566;SDS011;59403;47.456;19.120;2022-09-12T10:36:17;2.87;;;2.27;;
71566;SDS011;59403;47.456;19.120;2022-09-12T10:38:47;5.07;;;2.25;;
71566;SDS011;59403;47.456;19.120;2022-09-12T10:41:16;5.05;;;2.20;;
71566;SDS011;59403;47.456;19.120;2022-09-12T10:43:44;3.17;;;2.05;;
71566;SDS011;59403;47.456;19.120;2022-09-12T10:46:21;2.75;;;2.20;;
71566;SDS011;59403;47.456;19.120;2022-09-12T10:51:50;2.37;;;1.85;;
71566;SDS011;59403;47.456;19.120;2022-09-12T10:54:19;3.10;;;2.28;;
71566;SDS011;59403;47.456;19.120;2022-09-12T10:59:50;4.15;;;2.05;;
71566;SDS011;59403;47.456;19.120;2022-09-12T11:02:31;3.33;;;2.13;;
71566;SDS011;59403;47.456;19.120;2022-09-12T11:05:07;3.70;;;2.10;;
71566;SDS011;59403;47.456;19.120;2022-09-12T11:07:41;3.72;;;1.95;;
71566;SDS011;59403;47.456;19.120;2022-09-12T11:10:20;3.65;;;2.05;;
71566;SDS011;59403;47.456;19.120;2022-09-12T11:12:56;3.08;;;1.90;;
71566;SDS011;59403;47.456;19.120;2022-09-12T11:15:37;4.77;;;1.77;;
71566;SDS011;59403;47.456;19.120;2022-09-12T11:18:16;4.07;;;1.90;;
71566;SDS011;59403;47.456;19.120;2022-09-12T11:21:02;2.95;;;1.70;;
71566;SDS011;59403;47.456;19.120;2022-09-12T11:23:49;2.20;;;1.80;;
71566;SDS011;59403;47.456;19.120;2022-09-12T11:26:32;3.03;;;2.10;;
71566;SDS011;59403;47.456;19.120;2022-09-12T11:29:11;3.60;;;1.93;;
71566;SDS011;59403;47.456;19.120;2022-09-12T11:31:56;3.55;;;1.85;;
71566;SDS011;59403;47.456;19.120;2022-09-12T11:34:39;2.72;;;1.90;;
71566;SDS011;59403;47.456;19.120;2022-09-12T11:37:23;2.28;;;1.87;;
71566;SDS011;59403;47.456;19.120;2022-09-12T11:40:09;4.60;;;1.92;;
71566;SDS011;59403;47.456;19.120;2022-09-12T11:42:49;2.40;;;2.00;;
71566;SDS011;59403;47.456;19.120;2022-09-12T11:45:20;2.30;;;1.60;;
71566;SDS011;59403;47.456;19.120;2022-09-12T11:47:52;2.50;;;1.75;;
71566;SDS011;59403;47.456;19.120;2022-09-12T11:50:23;3.42;;;2.05;;
71566;SDS011;59403;47.456;19.120;2022-09-12T11:52:56;2.60;;;1.98;;
71566;SDS011;59403;47.456;19.120;2022-09-12T11:55:30;2.50;;;1.90;;
71566;SDS011;59403;47.456;19.120;2022-09-12T11:58:02;5.68;;;2.28;;
71566;SDS011;59403;47.456;19.120;2022-09-12T12:00:30;2.78;;;2.17;;
71566;SDS011;59403;47.456;19.120;2022-09-12T12:03:02;4.28;;;2.20;;
71566;SDS011;59403;47.456;19.120;2022-09-12T12:05:36;2.60;;;1.85;;
71566;SDS011;59403;47.456;19.120;2022-09-12T12:08:13;2.90;;;2.00;;
71566;SDS011;59403;47.456;19.120;2022-09-12T12:10:40;3.15;;;2.08;;
71566;SDS011;59403;47.456;19.120;2022-09-12T12:13:15;2.53;;;1.90;;
71566;SDS011;59403;47.456;19.120;2022-09-12T12:15:45;3.08;;;1.73;;
71566;SDS011;59403;47.456;19.120;2022-09-12T12:18:15;3.90;;;2.10;;
71566;SDS011;59403;47.456;19.120;2022-09-12T12:20:44;11.53;;;2.10;;
71566;SDS011;59403;47.456;19.120;2022-09-12T12:23:22;5.47;;;1.98;;
71566;SDS011;59403;47.456;19.120;2022-09-12T12:25:52;3.10;;;2.22;;
71566;SDS011;59403;47.456;19.120;2022-09-12T12:31:24;2.95;;;2.15;;
71566;SDS011;59403;47.456;19.120;2022-09-12T12:36:48;2.35;;;2.10;;
71566;SDS011;59403;47.456;19.120;2022-09-12T12:48:35;3.57;;;2.27;;
71566;SDS011;59403;47.456;19.120;2022-09-12T12:51:32;3.33;;;2.20;;
71566;SDS011;59403;47.456;19.120;2022-09-12T12:54:25;2.30;;;1.85;;
71566;SDS011;59403;47.456;19.120;2022-09-12T12:57:01;9.02;;;2.58;;
71566;SDS011;59403;47.456;19.120;2022-09-12T12:59:30;3.92;;;2.00;;
71566;SDS011;59403;47.456;19.120;2022-09-12T13:01:59;2.10;;;1.70;;
71566;SDS011;59403;47.456;19.120;2022-09-12T13:04:27;3.97;;;2.45;;
71566;SDS011;59403;47.456;19.120;2022-09-12T13:06:59;3.33;;;1.90;;
71566;SDS011;59403;47.456;19.120;2022-09-12T13:09:30;2.78;;;1.73;;
71566;SDS011;59403;47.456;19.120;2022-09-12T13:12:03;2.65;;;1.77;;
71566;SDS011;59403;47.456;19.120;2022-09-12T13:14:35;3.00;;;2.07;;
71566;SDS011;59403;47.456;19.120;2022-09-12T13:17:17;2.67;;;1.85;;
71566;SDS011;59403;47.456;19.120;2022-09-12T13:19:48;2.90;;;1.85;;
71566;SDS011;59403;47.456;19.120;2022-09-12T13:22:17;2.47;;;1.83;;
71566;SDS011;59403;47.456;19.120;2022-09-12T13:24:48;2.80;;;1.90;;
71566;SDS011;59403;47.456;19.120;2022-09-12T13:27:17;2.67;;;2.07;;
71566;SDS011;59403;47.456;19.120;2022-09-12T13:29:46;3.35;;;1.77;;
71566;SDS011;59403;47.456;19.120;2022-09-12T13:32:13;6.25;;;3.05;;
71566;SDS011;59403;47.456;19.120;2022-09-12T13:34:50;2.33;;;1.65;;
71566;SDS011;59403;47.456;19.120;2022-09-12T13:37:46;2.67;;;1.80;;
71566;SDS011;59403;47.456;19.120;2022-09-12T13:40:27;2.10;;;1.53;;
71566;SDS011;59403;47.456;19.120;2022-09-12T13:43:07;3.55;;;2.70;;
71566;SDS011;59403;47.456;19.120;2022-09-12T13:45:40;5.53;;;1.80;;
71566;SDS011;59403;47.456;19.120;2022-09-12T13:48:12;2.60;;;1.35;;
71566;SDS011;59403;47.456;19.120;2022-09-12T13:50:44;3.10;;;1.70;;
71566;SDS011;59403;47.456;19.120;2022-09-12T13:53:17;3.20;;;2.00;;
71566;SDS011;59403;47.456;19.120;2022-09-12T13:55:48;5.53;;;1.98;;
71566;SDS011;59403;47.456;19.120;2022-09-12T13:58:20;2.53;;;1.70;;
71566;SDS011;59403;47.456;19.120;2022-09-12T14:01:01;2.65;;;2.15;;
71566;SDS011;59403;47.456;19.120;2022-09-12T14:03:38;5.20;;;2.00;;
71566;SDS011;59403;47.456;19.120;2022-09-12T14:06:24;2.60;;;2.17;;
71566;SDS011;59403;47.456;19.120;2022-09-12T14:08:51;3.03;;;1.62;;
71566;SDS011;59403;47.456;19.120;2022-09-12T14:11:24;2.53;;;1.92;;
71566;SDS011;59403;47.456;19.120;2022-09-12T14:13:53;2.45;;;1.58;;
71566;SDS011;59403;47.456;19.120;2022-09-12T14:16:21;3.05;;;1.37;;
71566;SDS011;59403;47.456;19.120;2022-09-12T14:18:54;1.60;;;1.13;;
71566;SDS011;59403;47.456;19.120;2022-09-12T14:21:29;1.80;;;1.20;;
71566;SDS011;59403;47.456;19.120;2022-09-12T14:23:59;2.33;;;1.20;;
71566;SDS011;59403;47.456;19.120;2022-09-12T14:26:28;2.20;;;1.40;;
71566;SDS011;59403;47.456;19.120;2022-09-12T14:29:00;4.20;;;1.33;;
71566;SDS011;59403;47.456;19.120;2022-09-12T14:31:33;4.33;;;1.57;;
71566;SDS011;59403;47.456;19.120;2022-09-12T14:34:10;2.10;;;1.58;;
71566;SDS011;59403;47.456;19.120;2022-09-12T14:36:43;2.45;;;1.17;;
71566;SDS011;59403;47.456;19.120;2022-09-12T14:39:16;2.08;;;1.25;;
71566;SDS011;59403;47.456;19.120;2022-09-12T14:41:47;3.45;;;1.48;;
71566;SDS011;59403;47.456;19.120;2022-09-12T14:44:16;3.03;;;1.43;;
71566;SDS011;59403;47.456;19.120;2022-09-12T14:46:46;2.65;;;1.37;;
71566;SDS011;59403;47.456;19.120;2022-09-12T14:49:17;2.25;;;1.20;;
71566;SDS011;59403;47.456;19.120;2022-09-12T14:51:53;2.75;;;1.05;;
71566;SDS011;59403;47.456;19.120;2022-09-12T14:54:38;2.15;;;1.30;;
71566;SDS011;59403;47.456;19.120;2022-09-12T14:57:27;2.10;;;1.20;;
71566;SDS011;59403;47.456;19.120;2022-09-12T15:00:17;2.17;;;1.17;;
71566;SDS011;59403;47.456;19.120;2022-09-12T15:02:46;3.50;;;1.37;;
71566;SDS011;59403;47.456;19.120;2022-09-12T15:05:17;2.47;;;1.33;;
71566;SDS011;59403;47.456;19.120;2022-09-12T15:07:50;1.80;;;1.27;;
71566;SDS011;59403;47.456;19.120;2022-09-12T15:10:25;3.97;;;1.13;;
71566;SDS011;59403;47.456;19.120;2022-09-12T15:15:49;2.15;;;1.33;;
71566;SDS011;59403;47.456;19.120;2022-09-12T15:18:17;5.53;;;1.62;;
71566;SDS011;59403;47.456;19.120;2022-09-12T15:20:47;3.37;;;1.58;;
71566;SDS011;59403;47.456;19.120;2022-09-12T15:23:17;3.97;;;1.77;;
71566;SDS011;59403;47.456;19.120;2022-09-12T15:26:00;3.67;;;1.20;;
71566;SDS011;59403;47.456;19.120;2022-09-12T15:28:28;1.73;;;1.30;;